Date,TemperatureHighF,TemperatureAvgF,TemperatureLowF,DewpointHighF,DewpointAvgF,DewpointLowF,HumidityHigh,HumidityAvg,HumidityLow,PressureMaxIn,PressureMinIn,WindSpeedMaxMPH,WindSpeedAvgMPH,GustSpeedMaxMPH,PrecipitationSumIn
2013-2-1,2,-5,-16,-6,-13,-21,79,69,53,30.35,30.22,8,2,8,0.00
2013-2-2,14,4,-11,1,-4,-16,84,71,53,30.27,30.05,8,1,8,0.00
2013-2-3,13,7,-1,3,0,-6,83,73,55,30.10,30.00,12,2,12,0.00
2013-2-4,15,2,-18,2,-6,-23,88,68,43,30.15,29.92,6,0,6,0.00
2013-2-5,22,12,-7,17,8,-11,89,84,68,30.15,29.74,10,1,10,0.14
2013-2-6,23,10,-10,21,6,-14,92,85,74,30.25,30.12,6,1,6,0.07
2013-2-7,24,23,18,22,20,14,92,90,84,30.34,30.15,7,1,7,0.00
2013-2-8,28,16,3,18,10,0,89,80,58,30.46,30.33,6,0,6,0.00
2013-2-9,25,20,3,22,17,0,93,89,82,30.38,30.07,15,3,15,0.00
2013-2-10,36,29,24,34,27,22,96,93,92,30.07,29.30,17,2,17,0.33
2013-2-11,36,28,22,34,25,18,94,90,86,29.99,29.29,9,1,9,0.06
2013-2-12,29,21,11,24,17,8,89,86,81,30.03,29.81,10,1,10,0.00
2013-2-13,38,26,14,32,23,11,94,88,73,29.82,29.67,6,1,6,0.00
2013-2-14,32,28,25,28,24,22,91,85,72,29.85,29.67,8,1,8,0.00
2013-2-15,18,12,-1,7,3,-5,83,69,50,30.30,30.22,12,2,12,0.00
2013-2-16,19,0,-16,4,-8,-21,89,71,44,30.29,30.24,7,1,7,0.00
2013-2-17,27,8,-18,15,-1,-24,88,68,52,30.28,29.88,14,3,14,0.00
2013-2-18,35,27,18,28,22,14,91,81,73,29.87,29.53,13,3,13,0.00
2013-2-19,18,7,1,14,0,-6,86,73,59,30.34,29.66,15,4,15,0.00
2013-2-20,24,12,-1,10,5,-5,84,74,54,30.53,30.34,8,2,8,0.00
2013-2-21,31,14,-10,18,7,-15,90,76,52,30.58,30.23,12,2,12,0.00
2013-2-22,28,24,16,25,21,12,91,88,85,30.23,29.86,7,1,7,0.17
2013-2-23,15,14,14,12,12,11,90,89,88,29.86,29.86,0,0,0,0.00
2013-2-24,35,30,24,28,25,21,89,82,72,30.13,30.06,5,0,4,0.00
2013-2-25,33,23,5,28,19,2,90,85,78,30.18,30.11,6,1,6,0.00
2013-2-26,41,28,12,29,22,9,92,79,56,30.16,29.93,13,3,13,0.00
2013-2-27,32,31,30,28,26,24,89,83,76,30.02,29.87,16,4,16,0.00
2013-2-28,30,26,22,26,21,16,87,81,73,30.29,30.01,14,4,14,0.00